createdAt,value
2022-08-09T00:00:15.516Z,35.24
2022-08-09T00:00:46.185Z,35.20
2022-08-09T00:01:16.546Z,35.27
2022-08-09T00:01:54.785Z,35.23
2022-08-09T00:02:15.803Z,35.28
2022-08-09T00:02:49.591Z,35.29
2022-08-09T00:04:00.494Z,35.31
2022-08-09T00:04:03.758Z,35.28
2022-08-09T00:04:34.205Z,35.20
2022-08-09T00:05:03.311Z,35.22
2022-08-09T00:06:18.189Z,35.28
2022-08-09T00:06:18.271Z,35.26
2022-08-09T00:06:22.493Z,35.24
2022-08-09T00:06:45.983Z,35.29
2022-08-09T00:07:16.092Z,35.28
2022-08-09T00:07:46.100Z,35.29
2022-08-09T00:08:32.327Z,35.28
2022-08-09T00:08:46.192Z,35.28
2022-08-09T00:09:16.207Z,35.30
2022-08-09T00:09:46.315Z,35.25
2022-08-09T00:10:21.585Z,35.28
2022-08-09T00:10:46.457Z,35.21
2022-08-09T00:11:24.548Z,35.29
2022-08-09T00:12:03.757Z,35.25
2022-08-09T00:12:22.736Z,35.31
2022-08-09T00:12:46.602Z,35.23
2022-08-09T00:13:17.613Z,35.30
2022-08-09T00:13:46.691Z,35.29
2022-08-09T00:14:17.258Z,35.32
2022-08-09T00:14:47.475Z,35.32
2022-08-09T00:15:16.781Z,35.25
2022-08-09T00:15:58.102Z,35.29
2022-08-09T00:16:16.865Z,35.32
2022-08-09T00:16:46.876Z,35.30
2022-08-09T00:18:07.585Z,35.28
2022-08-09T00:18:07.683Z,35.32
2022-08-09T00:18:16.976Z,35.30
2022-08-09T00:18:47.080Z,35.32
2022-08-09T00:19:18.382Z,35.23
2022-08-09T00:19:48.076Z,35.31
2022-08-09T00:20:17.482Z,35.28
2022-08-09T00:20:49.749Z,35.28
2022-08-09T00:21:17.374Z,35.30
2022-08-09T00:21:56.734Z,35.34
2022-08-09T00:22:18.201Z,35.28
2022-08-09T00:22:47.585Z,35.28
2022-08-09T00:23:55.684Z,35.32
2022-08-09T00:23:57.207Z,35.30
2022-08-09T00:24:17.713Z,35.29
2022-08-09T00:24:47.806Z,35.37
2022-08-09T00:25:23.265Z,35.29
2022-08-09T00:25:51.905Z,35.34
2022-08-09T00:26:17.949Z,35.34
2022-08-09T00:26:48.025Z,35.30
2022-08-09T00:27:18.096Z,35.33
2022-08-09T00:27:48.213Z,35.29
2022-08-09T00:28:18.325Z,35.32
2022-08-09T00:28:52.409Z,35.32
2022-08-09T00:29:39.947Z,35.30
2022-08-09T00:30:24.835Z,35.29
2022-08-09T00:30:25.750Z,35.32
2022-08-09T00:30:48.342Z,35.35
2022-08-09T00:31:57.109Z,35.30
2022-08-09T00:31:59.798Z,35.32
2022-08-09T00:32:26.833Z,35.33
2022-08-09T00:32:48.486Z,35.32
2022-08-09T00:33:18.544Z,35.34
2022-08-09T00:33:51.049Z,35.33
2022-08-09T00:34:19.232Z,35.30
2022-08-09T00:34:52.299Z,35.38
2022-08-09T00:35:18.750Z,35.33
2022-08-09T00:35:48.836Z,35.32
2022-08-09T00:36:18.910Z,35.32
2022-08-09T00:36:49.285Z,35.32
2022-08-09T00:37:19.050Z,35.35
2022-08-09T00:37:49.063Z,35.34
2022-08-09T00:38:21.456Z,35.29
2022-08-09T00:38:50.651Z,35.34
2022-08-09T00:40:10.405Z,35.32
2022-08-09T00:40:12.294Z,35.34
2022-08-09T00:40:19.727Z,35.36
2022-08-09T00:40:53.200Z,35.32
2022-08-09T00:44:09.986Z,35.30
2022-08-09T00:44:11.527Z,35.35
2022-08-09T00:44:13.796Z,35.37
2022-08-09T00:44:16.063Z,35.32
2022-08-09T00:44:16.492Z,35.35
2022-08-09T00:44:16.565Z,35.34
2022-08-09T00:44:26.047Z,35.33
2022-08-09T00:44:49.951Z,35.35
2022-08-09T00:45:20.891Z,35.38
2022-08-09T00:45:53.780Z,35.35
2022-08-09T00:46:56.549Z,35.33
2022-08-09T00:46:57.265Z,35.33
2022-08-09T00:47:20.209Z,35.32
2022-08-09T00:47:50.318Z,35.39
2022-08-09T00:48:20.409Z,35.33
2022-08-09T00:48:50.442Z,35.32
2022-08-09T00:49:20.613Z,35.36
2022-08-09T00:49:55.097Z,35.36
2022-08-09T00:50:20.462Z,35.32
2022-08-09T00:50:52.140Z,35.38
2022-08-09T00:51:20.580Z,35.37
2022-08-09T00:51:54.786Z,35.35
2022-08-09T00:52:20.697Z,35.30
2022-08-09T00:52:50.810Z,35.36
2022-08-09T00:53:24.104Z,35.33
2022-08-09T00:53:51.955Z,35.38
2022-08-09T00:54:20.952Z,35.36
2022-08-09T00:54:50.989Z,35.32
2022-08-09T00:55:54.185Z,35.36
2022-08-09T00:56:05.854Z,35.36
2022-08-09T00:56:21.098Z,35.38
2022-08-09T00:56:51.111Z,35.42
2022-08-09T00:57:33.729Z,35.36
2022-08-09T00:57:51.229Z,35.35
2022-08-09T00:58:25.559Z,35.33
2022-08-09T00:58:51.251Z,35.36
2022-08-09T00:59:41.569Z,35.34
2022-08-09T00:59:52.443Z,35.39
2022-08-09T01:00:23.801Z,35.33
2022-08-09T01:00:51.510Z,35.35
2022-08-09T01:01:21.578Z,35.33
2022-08-09T01:01:51.588Z,35.38
2022-08-09T01:02:21.618Z,35.35
2022-08-09T01:02:51.726Z,35.35
2022-08-09T01:03:21.719Z,35.36
2022-08-09T01:03:51.736Z,35.30
2022-08-09T01:04:21.789Z,35.30
2022-08-09T01:04:51.863Z,35.34
2022-08-09T01:05:22.420Z,35.30
2022-08-09T01:05:53.929Z,35.34
2022-08-09T01:06:21.973Z,35.30
2022-08-09T01:06:54.522Z,35.38
2022-08-09T01:07:37.964Z,35.36
2022-08-09T01:08:01.068Z,35.40
2022-08-09T01:08:26.737Z,35.40
2022-08-09T01:08:52.125Z,35.36
2022-08-09T01:09:23.260Z,35.38
2022-08-09T01:09:52.303Z,35.32
2022-08-09T01:10:22.415Z,35.35
2022-08-09T01:10:52.510Z,35.35
2022-08-09T01:11:22.577Z,35.35
2022-08-09T01:11:53.167Z,35.35
2022-08-09T01:12:22.625Z,35.35
2022-08-09T01:12:52.800Z,35.35
2022-08-09T01:13:22.739Z,35.28
2022-08-09T01:13:59.341Z,35.39
2022-08-09T01:14:22.861Z,35.35
2022-08-09T01:14:53.000Z,35.33
2022-08-09T01:15:22.951Z,35.33
2022-08-09T01:15:53.090Z,35.34
2022-08-09T01:16:23.160Z,35.33
2022-08-09T01:16:53.258Z,35.32
2022-08-09T01:17:23.362Z,35.35
2022-08-09T01:17:57.713Z,35.33
2022-08-09T01:18:30.509Z,35.33
2022-08-09T01:19:01.915Z,35.30
2022-08-09T01:19:40.191Z,35.37
2022-08-09T01:20:02.181Z,35.32
2022-08-09T01:20:23.550Z,35.35
2022-08-09T01:20:53.650Z,35.35
2022-08-09T01:21:24.729Z,35.33
2022-08-09T01:21:53.910Z,35.35
2022-08-09T01:22:23.854Z,35.35
2022-08-09T01:22:55.114Z,35.34
2022-08-09T01:24:02.874Z,35.35
2022-08-09T01:24:03.329Z,35.30
2022-08-09T01:24:23.953Z,35.39
2022-08-09T01:24:54.015Z,35.34
2022-08-09T01:25:24.044Z,35.38
2022-08-09T01:25:54.166Z,35.36
2022-08-09T01:26:24.272Z,35.36
2022-08-09T01:26:54.311Z,35.36
2022-08-09T01:27:24.416Z,35.36
2022-08-09T01:27:57.034Z,35.36
2022-08-09T01:28:26.030Z,35.35
2022-08-09T01:28:54.637Z,35.39
2022-08-09T01:29:24.743Z,35.36
2022-08-09T01:29:56.003Z,35.41
2022-08-09T01:30:28.452Z,35.34
2022-08-09T01:30:54.963Z,35.35
2022-08-09T01:32:30.653Z,35.42
2022-08-09T01:32:37.748Z,35.40
2022-08-09T01:32:39.057Z,35.36
2022-08-09T01:32:54.962Z,35.37
2022-08-09T01:33:25.070Z,35.38
2022-08-09T01:33:55.172Z,35.39
2022-08-09T01:34:25.241Z,35.36
2022-08-09T01:34:55.265Z,35.41
2022-08-09T01:35:37.379Z,35.38
2022-08-09T01:35:55.454Z,35.41
2022-08-09T01:36:25.472Z,35.38
2022-08-09T01:36:55.488Z,35.35
2022-08-09T01:38:05.547Z,35.42
2022-08-09T01:38:09.926Z,35.42
2022-08-09T01:38:25.760Z,35.38
2022-08-09T01:38:55.802Z,35.44
2022-08-09T01:39:25.913Z,35.44
2022-08-09T01:39:55.895Z,35.39
2022-08-09T01:40:28.565Z,35.39
2022-08-09T01:41:03.196Z,35.39
2022-08-09T01:41:26.367Z,35.39
2022-08-09T01:42:00.653Z,35.44
2022-08-09T01:42:26.217Z,35.39
2022-08-09T01:42:56.238Z,35.45
2022-08-09T01:43:26.344Z,35.40
2022-08-09T01:43:56.358Z,35.44
2022-08-09T01:44:26.406Z,35.39
2022-08-09T01:44:56.504Z,35.39
2022-08-09T01:45:26.570Z,35.42
2022-08-09T01:45:58.110Z,35.39
2022-08-09T01:46:27.267Z,35.40
2022-08-09T01:46:56.782Z,35.39
2022-08-09T01:47:26.862Z,35.44
2022-08-09T01:47:56.977Z,35.45
2022-08-09T01:48:29.618Z,35.45
2022-08-09T01:48:57.271Z,35.40
2022-08-09T01:49:27.226Z,35.44
2022-08-09T01:49:57.240Z,35.45
2022-08-09T01:50:36.551Z,35.42
2022-08-09T01:50:57.371Z,35.45
2022-08-09T01:51:27.403Z,35.47
2022-08-09T01:51:57.510Z,35.38
2022-08-09T01:52:27.619Z,35.42
2022-08-09T01:52:57.647Z,35.44
2022-08-09T01:53:29.157Z,35.45
2022-08-09T01:53:58.229Z,35.46
2022-08-09T01:54:27.788Z,35.46
2022-08-09T01:54:57.884Z,35.45
2022-08-09T01:55:27.932Z,35.46
2022-08-09T01:55:58.064Z,35.46
2022-08-09T01:56:28.088Z,35.49
2022-08-09T01:56:58.222Z,35.39
2022-08-09T01:57:28.208Z,35.45
2022-08-09T01:57:58.317Z,35.45
2022-08-09T01:58:28.355Z,35.45
2022-08-09T01:58:58.478Z,35.42
2022-08-09T01:59:32.447Z,35.47
2022-08-09T02:00:00.321Z,35.49
2022-08-09T02:00:34.974Z,35.46
2022-08-09T02:00:58.637Z,35.46
2022-08-09T02:01:58.367Z,35.48
2022-08-09T02:02:00.999Z,35.48
2022-08-09T02:02:29.845Z,35.51
2022-08-09T02:02:58.712Z,35.52
2022-08-09T02:03:28.822Z,35.54
2022-08-09T02:03:58.828Z,35.51
2022-08-09T02:04:28.918Z,35.49
2022-08-09T02:05:04.054Z,35.49
2022-08-09T02:05:37.919Z,35.51
2022-08-09T02:06:06.474Z,35.54
2022-08-09T02:06:29.072Z,35.55
2022-08-09T02:06:59.160Z,35.51
2022-08-09T02:08:35.903Z,35.54
2022-08-09T02:08:38.674Z,35.52
2022-08-09T02:08:40.052Z,35.54
2022-08-09T02:08:59.936Z,35.55
2022-08-09T02:09:42.285Z,35.55
2022-08-09T02:10:01.252Z,35.50
2022-08-09T02:10:30.172Z,35.57
2022-08-09T02:10:59.448Z,35.47
2022-08-09T02:11:42.091Z,35.55
2022-08-09T02:11:59.503Z,35.59
2022-08-09T02:12:32.501Z,35.58
2022-08-09T02:12:59.683Z,35.53
2022-08-09T02:13:37.688Z,35.58
2022-08-09T02:14:06.955Z,35.59
2022-08-09T02:14:29.730Z,35.56
2022-08-09T02:14:59.842Z,35.53
2022-08-09T02:15:49.678Z,35.57
2022-08-09T02:15:59.995Z,35.50
2022-08-09T02:16:32.070Z,35.53
2022-08-09T02:17:29.285Z,35.52
2022-08-09T02:18:00.450Z,35.55
2022-08-09T02:18:10.307Z,35.53
2022-08-09T02:18:30.107Z,35.59
2022-08-09T02:19:00.212Z,35.58
2022-08-09T02:19:34.833Z,35.55
2022-08-09T02:20:01.199Z,35.59
2022-08-09T02:20:32.942Z,35.55
2022-08-09T02:21:00.455Z,35.56
2022-08-09T02:21:30.425Z,35.55
2022-08-09T02:22:00.447Z,35.56
2022-08-09T02:22:34.950Z,35.56
2022-08-09T02:23:00.571Z,35.57
2022-08-09T02:23:32.017Z,35.58
2022-08-09T02:24:01.956Z,35.57
2022-08-09T02:24:30.725Z,35.55
2022-08-09T02:25:00.840Z,35.56
2022-08-09T02:25:30.948Z,35.56
2022-08-09T02:26:01.079Z,35.55
2022-08-09T02:26:31.172Z,35.59
2022-08-09T02:27:01.181Z,35.56
2022-08-09T02:27:58.042Z,35.57
2022-08-09T02:28:04.030Z,35.60
2022-08-09T02:28:31.291Z,35.53
2022-08-09T02:29:01.397Z,35.59
2022-08-09T02:29:32.615Z,35.57
2022-08-09T02:30:01.837Z,35.57
2022-08-09T02:30:31.687Z,35.52
2022-08-09T02:31:02.116Z,35.53
2022-08-09T02:31:34.214Z,35.50
2022-08-09T02:32:01.829Z,35.56
2022-08-09T02:32:32.175Z,35.59
2022-08-09T02:33:01.965Z,35.50
2022-08-09T02:33:38.187Z,35.53
2022-08-09T02:34:10.819Z,35.55
2022-08-09T02:34:41.748Z,35.59
2022-08-09T02:35:02.366Z,35.57
2022-08-09T02:36:01.427Z,35.57
2022-08-09T02:36:04.397Z,35.55
2022-08-09T02:36:32.618Z,35.57
2022-08-09T02:37:02.685Z,35.55
2022-08-09T02:37:33.088Z,35.53
2022-08-09T02:38:02.820Z,35.56
2022-08-09T02:38:34.757Z,35.57
2022-08-09T02:39:03.117Z,35.53
2022-08-09T02:39:39.711Z,35.54
2022-08-09T02:40:03.351Z,35.56
2022-08-09T02:40:33.295Z,35.62
2022-08-09T02:41:03.296Z,35.53
2022-08-09T02:41:33.601Z,35.60
2022-08-09T02:42:03.447Z,35.57
2022-08-09T02:42:33.918Z,35.57
2022-08-09T02:43:03.614Z,35.60
2022-08-09T02:43:47.698Z,35.54
2022-08-09T02:44:10.316Z,35.60
2022-08-09T02:44:33.726Z,35.54
2022-08-09T02:45:03.758Z,35.51
2022-08-09T02:45:33.800Z,35.51
2022-08-09T02:46:03.907Z,35.55
2022-08-09T02:46:34.017Z,35.60
2022-08-09T02:47:04.433Z,35.59
2022-08-09T02:47:46.278Z,35.53
2022-08-09T02:48:04.224Z,35.56
2022-08-09T02:48:34.337Z,35.56
2022-08-09T02:49:04.355Z,35.59
2022-08-09T02:49:38.970Z,35.53
2022-08-09T02:50:04.474Z,35.56
2022-08-09T02:50:34.581Z,35.59
2022-08-09T02:51:04.709Z,35.55
2022-08-09T02:51:40.249Z,35.59
2022-08-09T02:52:04.701Z,35.56
2022-08-09T02:52:35.357Z,35.57
2022-08-09T02:53:04.870Z,35.57
2022-08-09T02:53:34.985Z,35.57
2022-08-09T02:54:05.052Z,35.53
2022-08-09T02:54:35.124Z,35.54
2022-08-09T02:55:20.987Z,35.57
2022-08-09T02:55:53.750Z,35.51
2022-08-09T02:56:05.156Z,35.57
2022-08-09T02:56:35.261Z,35.55
2022-08-09T02:57:14.143Z,35.56
2022-08-09T02:57:40.440Z,35.59
2022-08-09T02:58:35.701Z,35.55
2022-08-09T02:58:37.960Z,35.57
2022-08-09T02:59:05.460Z,35.60
2022-08-09T02:59:36.372Z,35.59
2022-08-09T03:00:21.441Z,35.60
2022-08-09T03:00:35.546Z,35.63
2022-08-09T03:01:06.067Z,35.57
2022-08-09T03:01:42.618Z,35.59
2022-08-09T03:02:07.078Z,35.56
2022-08-09T03:02:36.055Z,35.60
2022-08-09T03:03:05.735Z,35.55
2022-08-09T03:04:12.252Z,35.59
2022-08-09T03:04:17.628Z,35.57
2022-08-09T03:04:35.832Z,35.57
2022-08-09T03:05:05.930Z,35.60
2022-08-09T03:05:36.013Z,35.59
2022-08-09T03:06:06.122Z,35.56
2022-08-09T03:06:36.277Z,35.59
2022-08-09T03:07:12.336Z,35.59
2022-08-09T03:07:36.245Z,35.62
2022-08-09T03:08:06.287Z,35.63
2022-08-09T03:08:36.392Z,35.59
2022-08-09T03:09:06.404Z,35.60
2022-08-09T03:09:36.516Z,35.60
2022-08-09T03:10:06.527Z,35.60
2022-08-09T03:10:36.639Z,35.60
2022-08-09T03:11:06.699Z,35.56
2022-08-09T03:12:05.944Z,35.54
2022-08-09T03:12:11.281Z,35.61
2022-08-09T03:12:36.796Z,35.56
2022-08-09T03:13:08.218Z,35.57
2022-08-09T03:13:43.245Z,35.63
2022-08-09T03:14:06.946Z,35.54
2022-08-09T03:14:37.060Z,35.60
2022-08-09T03:15:07.165Z,35.55
2022-08-09T03:16:04.918Z,35.57
2022-08-09T03:16:07.287Z,35.57
2022-08-09T03:16:41.612Z,35.60
2022-08-09T03:17:07.280Z,35.55
2022-08-09T03:17:37.290Z,35.60
2022-08-09T03:18:09.722Z,35.55
2022-08-09T03:18:38.335Z,35.57
2022-08-09T03:19:14.483Z,35.60
2022-08-09T03:19:58.205Z,35.59
2022-08-09T03:20:11.661Z,35.59
2022-08-09T03:20:37.561Z,35.60
2022-08-09T03:21:07.624Z,35.60
2022-08-09T03:21:39.706Z,35.60
2022-08-09T03:22:12.383Z,35.57
2022-08-09T03:22:41.287Z,35.63
2022-08-09T03:23:15.510Z,35.60
2022-08-09T03:23:37.803Z,35.57
2022-08-09T03:24:10.130Z,35.61
2022-08-09T03:24:51.827Z,35.60
2022-08-09T03:25:26.242Z,35.60
2022-08-09T03:26:03.016Z,35.64
2022-08-09T03:26:08.028Z,35.66
2022-08-09T03:26:45.080Z,35.60
2022-08-09T03:27:08.089Z,35.61
2022-08-09T03:27:45.379Z,35.60
2022-08-09T03:28:11.347Z,35.60
2022-08-09T03:28:38.312Z,35.58
2022-08-09T03:29:09.706Z,35.61
2022-08-09T03:29:57.102Z,35.57
2022-08-09T03:30:08.333Z,35.61
2022-08-09T03:30:38.448Z,35.58
2022-08-09T03:31:21.021Z,35.60
2022-08-09T03:31:42.336Z,35.59
2022-08-09T03:32:08.589Z,35.58
2022-08-09T03:32:38.700Z,35.58
2022-08-09T03:33:12.853Z,35.61
2022-08-09T03:33:53.054Z,35.63
2022-08-09T03:34:09.025Z,35.55
2022-08-09T03:34:39.133Z,35.60
2022-08-09T03:35:24.885Z,35.64
2022-08-09T03:35:44.465Z,35.62
2022-08-09T03:36:15.574Z,35.57
2022-08-09T03:36:39.459Z,35.62
2022-08-09T03:37:29.204Z,35.57
2022-08-09T03:37:54.713Z,35.61
2022-08-09T03:38:09.687Z,35.66
2022-08-09T03:38:41.949Z,35.66
2022-08-09T03:39:09.867Z,35.58
2022-08-09T03:39:39.841Z,35.61
2022-08-09T03:40:09.919Z,35.58
2022-08-09T03:40:39.972Z,35.62
2022-08-09T03:41:09.990Z,35.66
2022-08-09T03:41:45.889Z,35.60
2022-08-09T03:42:10.199Z,35.61
2022-08-09T03:42:43.105Z,35.62
2022-08-09T03:43:11.494Z,35.64
2022-08-09T03:43:40.379Z,35.57
2022-08-09T03:44:10.402Z,35.60
2022-08-09T03:44:40.478Z,35.64
2022-08-09T03:45:10.593Z,35.59
2022-08-09T03:46:03.005Z,35.65
2022-08-09T03:46:20.244Z,35.65
2022-08-09T03:46:40.733Z,35.64
2022-08-09T03:47:10.843Z,35.62
2022-08-09T03:47:42.134Z,35.70
2022-08-09T03:48:11.044Z,35.71
2022-08-09T03:48:42.908Z,35.67
2022-08-09T03:49:11.011Z,35.66
2022-08-09T03:49:41.117Z,35.64
2022-08-09T03:50:11.129Z,35.73
2022-08-09T03:50:41.235Z,35.68
2022-08-09T03:51:55.924Z,35.77
2022-08-09T03:51:57.036Z,35.76
2022-08-09T03:52:11.371Z,35.86
2022-08-09T03:52:41.779Z,35.89
2022-08-09T03:53:11.566Z,35.80
2022-08-09T03:53:41.581Z,35.86
2022-08-09T03:54:11.690Z,35.89
2022-08-09T03:54:41.804Z,35.89
2022-08-09T03:55:14.406Z,35.97
2022-08-09T03:55:42.510Z,35.97
2022-08-09T03:56:12.024Z,35.94
2022-08-09T03:56:42.035Z,35.97
2022-08-09T03:57:19.793Z,35.94
2022-08-09T03:57:53.662Z,35.89
2022-08-09T03:58:16.113Z,35.91
2022-08-09T03:58:42.277Z,36.02
2022-08-09T03:59:13.682Z,36.05
2022-08-09T03:59:43.168Z,36.05
2022-08-09T04:00:12.340Z,36.08
2022-08-09T04:00:42.407Z,36.66
2022-08-09T04:01:12.596Z,36.39
2022-08-09T04:01:42.537Z,36.34
2022-08-09T04:02:14.196Z,36.50
2022-08-09T04:02:44.948Z,36.35
2022-08-09T04:03:19.844Z,37.47
2022-08-09T04:03:46.261Z,37.16
2022-08-09T04:04:14.654Z,37.14
2022-08-09T04:04:45.608Z,37.53
2022-08-09T04:05:20.269Z,37.56
2022-08-09T04:05:42.865Z,38.00
2022-08-09T04:06:12.965Z,37.69
2022-08-09T04:06:44.026Z,37.35
2022-08-09T04:07:13.000Z,37.49
2022-08-09T04:07:52.440Z,37.41
2022-08-09T04:08:13.082Z,37.52
2022-08-09T04:08:46.748Z,37.27
2022-08-09T04:09:41.916Z,37.33
2022-08-09T04:09:48.962Z,37.37
2022-08-09T04:10:13.175Z,37.42
2022-08-09T04:10:43.284Z,37.45
2022-08-09T04:11:13.299Z,37.15
2022-08-09T04:11:43.368Z,37.27
2022-08-09T04:12:30.439Z,37.04
2022-08-09T04:12:44.598Z,36.99
2022-08-09T04:13:13.548Z,37.13
2022-08-09T04:14:36.991Z,37.46
2022-08-09T04:14:52.796Z,37.19
2022-08-09T04:15:01.750Z,36.89
2022-08-09T04:15:17.129Z,36.85
2022-08-09T04:16:17.978Z,36.85
2022-08-09T04:16:20.494Z,36.88
2022-08-09T04:16:43.649Z,36.76
2022-08-09T04:17:13.639Z,37.04
2022-08-09T04:17:43.704Z,37.00
2022-08-09T04:18:16.486Z,37.06
2022-08-09T04:18:43.871Z,38.09
2022-08-09T04:19:15.959Z,37.41
2022-08-09T04:19:51.439Z,36.30
2022-08-09T04:20:13.975Z,36.08
2022-08-09T04:20:44.023Z,36.17
2022-08-09T04:21:14.126Z,36.38
2022-08-09T04:21:44.174Z,36.21
2022-08-09T04:22:14.294Z,35.97
2022-08-09T04:22:44.586Z,36.02
2022-08-09T04:23:16.878Z,36.04
2022-08-09T04:23:53.702Z,35.90
2022-08-09T04:24:14.446Z,36.04
2022-08-09T04:24:44.558Z,36.48
2022-08-09T04:25:14.676Z,36.46
2022-08-09T04:25:44.785Z,36.47
2022-08-09T04:26:14.794Z,36.48
2022-08-09T04:26:44.796Z,36.59
2022-08-09T04:27:14.797Z,36.72
2022-08-09T04:27:46.798Z,36.71
2022-08-09T04:28:14.949Z,36.95
2022-08-09T04:28:46.929Z,36.94
2022-08-09T04:29:15.792Z,37.08
2022-08-09T04:29:49.819Z,37.12
2022-08-09T04:30:15.094Z,37.27
2022-08-09T04:30:45.106Z,37.45
2022-08-09T04:31:15.164Z,37.97
2022-08-09T04:31:47.434Z,38.01
2022-08-09T04:32:15.234Z,38.31
2022-08-09T04:32:46.658Z,38.31
2022-08-09T04:33:15.354Z,38.52
2022-08-09T04:33:47.269Z,38.63
2022-08-09T04:34:19.176Z,38.72
2022-08-09T04:34:47.731Z,38.51
2022-08-09T04:35:15.492Z,38.47
2022-08-09T04:35:45.458Z,38.34
2022-08-09T04:36:15.536Z,38.19
2022-08-09T04:36:45.537Z,38.08
2022-08-09T04:37:15.981Z,38.07
2022-08-09T04:37:46.752Z,37.95
2022-08-09T04:38:15.629Z,37.91
2022-08-09T04:38:45.674Z,37.82
2022-08-09T04:39:15.789Z,38.06
2022-08-09T04:39:49.379Z,37.75
2022-08-09T04:40:19.128Z,37.78
2022-08-09T04:40:46.139Z,37.64
2022-08-09T04:41:15.865Z,37.58
2022-08-09T04:41:45.942Z,37.66
2022-08-09T04:42:15.995Z,37.63
2022-08-09T04:42:45.981Z,37.72
2022-08-09T04:43:16.047Z,37.83
2022-08-09T04:43:53.598Z,37.55
2022-08-09T04:44:16.158Z,37.52
2022-08-09T04:44:49.042Z,37.63
2022-08-09T04:45:16.257Z,37.48
2022-08-09T04:45:54.037Z,37.42
2022-08-09T04:46:37.832Z,37.56
2022-08-09T04:46:57.317Z,37.54
2022-08-09T04:47:16.373Z,37.70
2022-08-09T04:47:58.842Z,37.60
2022-08-09T04:48:16.372Z,37.72
2022-08-09T04:48:57.488Z,37.92
2022-08-09T04:49:16.415Z,37.97
2022-08-09T04:49:55.055Z,37.95
2022-08-09T04:50:16.452Z,37.90
2022-08-09T04:50:46.571Z,37.81
2022-08-09T04:51:16.646Z,37.82
2022-08-09T04:51:46.759Z,37.80
2022-08-09T04:52:18.580Z,37.69
2022-08-09T04:52:46.884Z,37.58
2022-08-09T04:53:16.928Z,37.55
2022-08-09T04:53:49.186Z,37.44
2022-08-09T04:54:17.054Z,37.44
2022-08-09T04:54:47.111Z,37.41
2022-08-09T04:55:17.094Z,37.47
2022-08-09T04:55:58.762Z,37.43
2022-08-09T04:56:17.143Z,37.29
2022-08-09T04:56:47.153Z,37.17
2022-08-09T04:57:17.273Z,37.10
2022-08-09T04:57:54.219Z,37.07
2022-08-09T04:58:17.297Z,37.07
2022-08-09T04:58:47.359Z,37.03
2022-08-09T04:59:17.389Z,37.10
2022-08-09T04:59:47.524Z,37.08
2022-08-09T05:00:17.511Z,36.91
2022-08-09T05:00:47.529Z,36.81
2022-08-09T05:01:18.918Z,36.75
2022-08-09T05:01:47.613Z,36.78
2022-08-09T05:02:17.753Z,36.61
2022-08-09T05:02:51.658Z,36.45
2022-08-09T05:03:40.209Z,36.47
2022-08-09T05:03:48.198Z,36.48
2022-08-09T05:04:17.837Z,36.43
2022-08-09T05:04:47.792Z,36.40
2022-08-09T05:05:18.899Z,36.32
2022-08-09T05:05:51.912Z,36.23
2022-08-09T05:06:18.251Z,36.13
2022-08-09T05:06:50.465Z,36.37
2022-08-09T05:07:19.234Z,36.39
2022-08-09T05:07:47.939Z,36.51
2022-08-09T05:08:17.946Z,36.49
2022-08-09T05:08:48.187Z,36.49
2022-08-09T05:09:18.072Z,36.48
2022-08-09T05:09:49.734Z,36.61
2022-08-09T05:10:18.193Z,36.58
2022-08-09T05:10:48.300Z,36.67
2022-08-09T05:11:18.336Z,36.58
2022-08-09T05:11:48.385Z,36.63
2022-08-09T05:12:18.513Z,36.66
2022-08-09T05:12:48.604Z,36.75
2022-08-09T05:13:18.713Z,36.64
2022-08-09T05:13:48.732Z,36.74
2022-08-09T05:14:18.839Z,36.71
2022-08-09T05:14:48.948Z,36.81
2022-08-09T05:15:38.713Z,36.60
2022-08-09T05:15:56.532Z,36.64
2022-08-09T05:16:18.988Z,36.64
2022-08-09T05:16:59.278Z,36.56
2022-08-09T05:18:37.735Z,36.30
2022-08-09T05:18:37.771Z,36.23
2022-08-09T05:18:50.735Z,36.35
2022-08-09T05:18:57.986Z,36.43
2022-08-09T05:19:23.851Z,36.55
2022-08-09T05:19:49.072Z,36.59
2022-08-09T05:20:19.080Z,36.56
2022-08-09T05:20:49.192Z,36.80
2022-08-09T05:21:22.983Z,36.60
2022-08-09T05:21:55.961Z,36.73
2022-08-09T05:22:33.098Z,36.74
2022-08-09T05:23:50.965Z,36.98
2022-08-09T05:23:54.914Z,37.01
2022-08-09T05:23:55.261Z,36.94
2022-08-09T05:24:19.374Z,37.18
2022-08-09T05:24:49.388Z,37.33
2022-08-09T05:25:19.404Z,37.30
2022-08-09T05:25:50.930Z,37.28
2022-08-09T05:26:33.872Z,37.34
2022-08-09T05:26:49.577Z,37.34
2022-08-09T05:27:19.697Z,37.32
2022-08-09T05:27:49.754Z,37.28
2022-08-09T05:28:19.764Z,37.23
2022-08-09T05:28:49.871Z,37.40
2022-08-09T05:29:21.955Z,37.29
2022-08-09T05:29:49.993Z,37.33
2022-08-09T05:30:20.085Z,37.25
2022-08-09T05:30:51.547Z,37.25
2022-08-09T05:31:36.986Z,37.15
2022-08-09T05:31:57.155Z,37.27
2022-08-09T05:32:20.236Z,37.37
2022-08-09T05:32:50.807Z,37.37
2022-08-09T05:33:26.397Z,37.37
2022-08-09T05:33:50.560Z,37.26
2022-08-09T05:34:20.640Z,37.26
2022-08-09T05:34:50.716Z,37.20
2022-08-09T05:35:22.131Z,37.23
2022-08-09T05:35:50.957Z,37.28
2022-08-09T05:36:21.103Z,37.24
2022-08-09T05:36:50.931Z,37.41
2022-08-09T05:37:20.927Z,37.37
2022-08-09T05:37:51.051Z,37.46
2022-08-09T05:38:21.674Z,37.38
2022-08-09T05:38:51.197Z,37.50
2022-08-09T05:39:29.429Z,37.43
2022-08-09T05:39:51.469Z,37.50
2022-08-09T05:40:21.698Z,37.49
2022-08-09T05:40:51.544Z,37.47
2022-08-09T05:41:21.616Z,37.79
2022-08-09T05:41:51.637Z,37.63
2022-08-09T05:42:27.875Z,37.55
2022-08-09T05:42:51.784Z,37.71
2022-08-09T05:43:21.862Z,37.82
2022-08-09T05:43:51.975Z,37.81
2022-08-09T05:44:28.850Z,37.72
2022-08-09T05:44:52.342Z,37.68
2022-08-09T05:45:22.156Z,37.57
2022-08-09T05:45:56.689Z,37.61
2022-08-09T05:46:22.208Z,37.66
2022-08-09T05:46:52.326Z,37.67
2022-08-09T05:47:22.582Z,37.65
2022-08-09T05:47:54.294Z,37.67
2022-08-09T05:48:22.490Z,37.71
2022-08-09T05:48:58.440Z,37.63
2022-08-09T05:50:25.968Z,37.85
2022-08-09T05:50:30.197Z,37.82
2022-08-09T05:50:30.972Z,37.69
2022-08-09T05:51:12.046Z,37.99
2022-08-09T05:51:42.289Z,38.30
2022-08-09T05:51:52.569Z,38.19
2022-08-09T05:52:24.749Z,38.16
2022-08-09T05:52:54.078Z,38.27
2022-08-09T05:53:33.235Z,38.09
2022-08-09T05:53:57.357Z,38.11
2022-08-09T05:54:22.761Z,38.09
2022-08-09T05:54:52.842Z,38.15
2022-08-09T05:55:23.424Z,38.13
2022-08-09T05:55:53.115Z,38.16
2022-08-09T05:56:22.999Z,38.21
2022-08-09T05:56:55.263Z,38.22
2022-08-09T05:57:25.003Z,38.29
2022-08-09T05:57:56.562Z,38.30
2022-08-09T05:58:23.177Z,38.60
2022-08-09T05:58:58.267Z,38.62
2022-08-09T05:59:23.197Z,38.57
2022-08-09T05:59:53.326Z,38.56
2022-08-09T06:00:23.318Z,38.55
2022-08-09T06:00:53.354Z,38.60
2022-08-09T06:01:23.337Z,38.52
2022-08-09T06:01:53.451Z,38.72
2022-08-09T06:02:23.540Z,38.60
2022-08-09T06:02:54.244Z,38.55
2022-08-09T06:03:23.636Z,38.44
2022-08-09T06:03:58.050Z,38.66
2022-08-09T06:04:23.843Z,38.59
2022-08-09T06:04:53.769Z,38.88
2022-08-09T06:05:31.149Z,38.73
2022-08-09T06:06:02.710Z,38.76
2022-08-09T06:06:23.791Z,38.83
2022-08-09T06:06:53.823Z,38.60
2022-08-09T06:07:23.899Z,38.94
2022-08-09T06:08:05.570Z,38.98
2022-08-09T06:08:24.685Z,39.22
2022-08-09T06:08:54.027Z,39.17
2022-08-09T06:09:54.979Z,39.07
2022-08-09T06:10:01.993Z,39.21
2022-08-09T06:10:24.207Z,39.04
2022-08-09T06:10:54.314Z,39.38
2022-08-09T06:11:41.223Z,39.41
2022-08-09T06:11:57.142Z,39.44
2022-08-09T06:12:26.427Z,39.44
2022-08-09T06:13:02.999Z,39.44
2022-08-09T06:13:24.555Z,39.46
2022-08-09T06:13:54.670Z,39.27
2022-08-09T06:14:24.782Z,39.44
2022-08-09T06:14:54.914Z,39.41
2022-08-09T06:15:24.903Z,39.37
2022-08-09T06:15:54.996Z,39.32
2022-08-09T06:16:25.080Z,39.34
2022-08-09T06:16:55.201Z,39.31
2022-08-09T06:17:25.236Z,39.31
2022-08-09T06:17:55.357Z,39.11
2022-08-09T06:18:25.940Z,39.03
2022-08-09T06:18:55.478Z,39.10
2022-08-09T06:19:27.521Z,39.14
2022-08-09T06:19:55.659Z,39.27
2022-08-09T06:20:25.657Z,39.17
2022-08-09T06:20:57.841Z,39.12
2022-08-09T06:21:25.851Z,39.07
2022-08-09T06:21:58.960Z,39.33
2022-08-09T06:22:28.738Z,39.41
2022-08-09T06:22:55.976Z,39.38
2022-08-09T06:23:58.299Z,39.35
2022-08-09T06:24:01.195Z,39.22
2022-08-09T06:24:26.027Z,39.16
2022-08-09T06:24:56.135Z,39.10
2022-08-09T06:25:26.253Z,38.96
2022-08-09T06:25:56.332Z,39.00
2022-08-09T06:26:28.617Z,38.91
2022-08-09T06:26:56.348Z,38.96